Time;durP1;ratioP1;P1;durP2;ratioP2;P2;SDS_P1;SDS_P2;PMS_P1;PMS_P2;Temp;Humidity;BMP_temperature;BMP_pressure;BME280_temperature;BME280_humidity;BME280_pressure;Samples;Min_cycle;Max_cycle;Signal;HPM_P1;HPM_P2
2022/08/14 08:58:11;;;;;;;19.70;6.47;;;;;;;33.89;51.15;100168.37;1756733;80;21035;-69
2022/08/14 09:00:41;;;;;;;13.43;6.10;;;;;;;33.91;50.03;100161.75;1750717;80;21520;-70
2022/08/14 09:03:14;;;;;;;14.15;6.40;;;;;;;33.69;50.86;100157.47;1752092;80;20957;-70
2022/08/14 09:05:58;;;;;;;12.07;6.20;;;;;;;34.01;50.81;100161.71;1767158;80;20988;-70
2022/08/14 09:08:30;;;;;;;16.02;5.45;;;;;;;34.08;50.73;100151.72;1756954;80;20957;-70
2022/08/14 09:11:08;;;;;;;14.18;6.20;;;;;;;33.95;49.89;100157.30;1757428;80;21111;-70
2022/08/14 09:13:36;;;;;;;12.33;5.95;;;;;;;33.97;50.28;100153.88;1758753;80;20995;-70
2022/08/14 09:16:04;;;;;;;12.43;5.78;;;;;;;33.70;50.86;100151.63;1757327;80;21003;-70
2022/08/14 09:18:31;;;;;;;14.75;6.17;;;;;;;33.81;49.34;100158.02;1753844;80;21572;-69
2022/08/14 09:20:58;;;;;;;16.82;6.15;;;;;;;33.93;50.52;100148.98;1755428;81;21519;-69
2022/08/14 09:23:25;;;;;;;12.05;5.53;;;;;;;33.97;49.30;100152.01;1750996;80;21530;-69
2022/08/14 09:25:53;;;;;;;13.03;5.80;;;;;;;34.35;49.47;100140.09;1763791;80;21032;-69
2022/08/14 09:28:21;;;;;;;12.98;6.12;;;;;;;34.62;50.00;100149.74;1752752;80;20996;-68
2022/08/14 09:30:53;;;;;;;12.40;5.95;;;;;;;34.68;48.05;100140.00;1752188;80;21573;-69
2022/08/14 09:33:47;;;;;;;14.78;6.35;;;;;;;34.71;48.72;100147.54;1755134;80;20968;-69
2022/08/14 09:36:55;;;;;;;14.38;6.75;;;;;;;34.70;49.17;100140.58;1757208;80;21542;-68
2022/08/14 09:39:34;;;;;;;15.05;6.55;;;;;;;34.40;50.45;100145.53;1758415;80;20980;-69
2022/08/14 09:42:34;;;;;;;14.18;6.47;;;;;;;34.55;48.73;100150.38;1739381;80;21110;-70
2022/08/14 09:45:46;;;;;;;12.90;6.67;;;;;;;34.46;49.67;100145.12;1735974;81;21045;-70
2022/08/14 09:48:18;;;;;;;15.55;7.50;;;;;;;34.48;50.50;100146.50;1756417;80;20995;-71
2022/08/14 09:50:54;;;;;;;15.80;6.87;;;;;;;34.40;50.40;100146.86;1775236;80;21556;-70
2022/08/14 09:53:46;;;;;;;13.58;6.67;;;;;;;34.58;51.68;100139.23;1721357;80;21012;-71
2022/08/14 09:56:14;;;;;;;12.40;6.90;;;;;;;34.59;49.02;100145.38;1743494;80;21108;-70
2022/08/14 09:58:46;;;;;;;11.53;6.53;;;;;;;34.78;47.59;100137.53;1740446;80;20994;-71
2022/08/14 10:01:17;;;;;;;15.60;6.37;;;;;;;34.80;49.14;100137.30;1746930;80;21051;-68
2022/08/14 10:03:55;;;;;;;15.38;6.35;;;;;;;34.85;49.04;100134.72;1757362;80;21526;-68
2022/08/14 10:06:28;;;;;;;12.75;6.55;;;;;;;34.70;50.08;100137.38;1723791;81;21526;-69
2022/08/14 10:09:05;;;;;;;12.45;6.60;;;;;;;35.26;48.92;100143.04;1697850;83;21119;-68
2022/08/14 10:11:37;;;;;;;12.50;6.42;;;;;;;35.17;49.08;100139.11;1761746;80;21488;-68
2022/08/14 10:14:20;;;;;;;14.87;7.03;;;;;;;35.39;47.38;100138.44;1745107;80;21031;-69
2022/08/14 10:16:53;;;;;;;14.38;6.28;;;;;;;35.42;48.36;100136.06;1734901;81;21063;-69
2022/08/14 10:19:24;;;;;;;11.88;6.90;;;;;;;35.68;48.36;100137.88;1741890;80;21474;-69
2022/08/14 10:22:07;;;;;;;10.35;6.22;;;;;;;35.57;48.04;100136.07;1734785;80;21101;-68
2022/08/14 10:24:41;;;;;;;12.65;6.80;;;;;;;35.68;48.31;100138.68;1762340;80;21025;-69
2022/08/14 10:27:18;;;;;;;14.38;7.10;;;;;;;35.57;46.93;100142.77;1749814;80;21025;-69
2022/08/14 10:29:53;;;;;;;17.48;6.97;;;;;;;35.38;48.15;100132.78;1730799;81;21095;-69
2022/08/14 10:32:21;;;;;;;11.00;6.55;;;;;;;35.61;48.87;100139.36;1730288;81;21500;-70
2022/08/14 10:34:49;;;;;;;13.40;7.25;;;;;;;35.62;48.84;100144.98;1749342;80;21529;-69
2022/08/14 10:37:18;;;;;;;15.65;6.85;;;;;;;35.43;49.13;100143.59;1747471;80;21055;-70
2022/08/14 10:40:01;;;;;;;12.50;7.28;;;;;;;35.43;49.27;100140.92;1736207;80;21049;-69
2022/08/14 10:42:40;;;;;;;12.13;7.45;;;;;;;35.61;49.68;100137.20;1731218;81;21058;-69
2022/08/14 10:45:23;;;;;;;13.53;6.58;;;;;;;35.73;49.90;100125.09;1745934;80;21057;-69
2022/08/14 10:47:54;;;;;;;16.42;6.17;;;;;;;35.45;46.44;100133.45;1740941;80;21064;-69
2022/08/14 10:50:37;;;;;;;12.35;6.70;;;;;;;35.26;45.04;100135.52;1742560;81;21067;-69
2022/08/14 10:53:04;;;;;;;;;;;;;;;35.36;46.45;100138.38;1750311;80;21075;-69
2022/08/14 10:55:39;;;;;;;15.43;7.50;;;;;;;35.17;46.99;100140.45;1758391;81;20092;-69
2022/08/14 10:58:12;;;;;;;13.93;7.28;;;;;;;35.18;47.25;100136.73;1733055;81;21063;-69
2022/08/14 11:00:41;;;;;;;12.20;7.58;;;;;;;35.44;48.29;100131.82;1726745;82;21047;-69
2022/08/14 11:03:16;;;;;;;12.50;6.65;;;;;;;35.36;47.74;100135.69;1735259;81;21579;-69
2022/08/14 11:05:47;;;;;;;12.80;6.47;;;;;;;35.49;46.77;100138.08;1749057;80;21578;-69
2022/08/14 11:08:18;;;;;;;11.93;6.35;;;;;;;35.58;47.30;100141.16;1773533;80;21031;-69
2022/08/14 11:10:49;;;;;;;12.35;6.47;;;;;;;35.64;47.29;100138.05;1769892;80;21578;-69
2022/08/14 11:13:24;;;;;;;10.32;6.40;;;;;;;35.72;46.92;100135.00;1686524;83;21036;-69
2022/08/14 11:15:55;;;;;;;13.72;6.40;;;;;;;35.81;46.31;100134.89;1729988;81;21519;-69
2022/08/14 11:18:23;;;;;;;10.88;6.25;;;;;;;36.07;46.07;100134.75;1708077;82;21052;-69
2022/08/14 11:20:58;;;;;;;10.55;6.35;;;;;;;36.30;45.86;100132.41;1706857;82;21017;-69
2022/08/14 11:23:31;;;;;;;11.00;6.15;;;;;;;36.25;47.15;100130.19;1733618;82;21526;-69
2022/08/14 11:26:01;;;;;;;9.38;6.40;;;;;;;36.81;46.58;100134.16;1734047;82;21470;-69
2022/08/14 11:28:32;;;;;;;11.22;5.75;;;;;;;36.95;46.73;100133.23;1709556;82;21112;-69
2022/08/14 11:31:02;;;;;;;11.83;5.62;;;;;;;37.05;45.35;100138.17;1728125;83;20989;-69
2022/08/14 11:33:34;;;;;;;13.43;6.08;;;;;;;37.34;43.85;100130.44;1738499;81;21028;-69
2022/08/14 11:36:05;;;;;;;13.72;6.67;;;;;;;37.22;42.98;100127.36;1730732;82;21024;-69
2022/08/14 11:38:39;;;;;;;13.30;5.65;;;;;;;37.08;41.53;100114.04;1728794;82;21543;-69
2022/08/14 11:41:08;;;;;;;11.50;5.78;;;;;;;36.88;40.94;100121.34;1723883;82;21040;-69
2022/08/14 11:43:42;;;;;;;14.63;6.25;;;;;;;36.68;42.67;100103.14;1722916;81;21111;-69
2022/08/14 11:46:12;;;;;;;12.37;5.50;;;;;;;36.79;43.26;100106.23;1719233;81;21517;-69
2022/08/14 11:48:54;;;;;;;10.15;5.47;;;;;;;36.81;42.98;100110.81;1741463;81;21143;-69
2022/08/14 11:51:26;;;;;;;8.78;5.47;;;;;;;36.36;43.30;100103.02;1744488;81;21074;-69
2022/08/14 11:54:04;;;;;;;12.25;5.62;;;;;;;36.46;42.28;100109.30;1742069;82;21032;-69
2022/08/14 11:56:36;;;;;;;13.75;6.03;;;;;;;36.35;42.90;100108.88;1742494;82;21044;-69
2022/08/14 11:59:08;;;;;;;10.38;5.70;;;;;;;36.72;43.82;100111.50;1732303;82;21029;-69
2022/08/14 12:01:35;;;;;;;11.68;5.62;;;;;;;36.31;42.94;100099.72;1728708;82;21052;-69
2022/08/14 12:04:19;;;;;;;10.78;5.60;;;;;;;36.47;44.21;100104.21;1738567;81;21036;-69
2022/08/14 12:06:54;;;;;;;14.83;5.97;;;;;;;36.56;43.01;100102.44;1747772;81;21551;-69
2022/08/14 12:09:37;;;;;;;11.50;6.03;;;;;;;36.31;42.78;100097.03;1706623;82;21059;-70
2022/08/14 12:12:20;;;;;;;9.67;5.90;;;;;;;36.13;42.41;100098.64;1737815;82;21087;-69
2022/08/14 12:14:58;;;;;;;10.68;5.47;;;;;;;36.12;43.82;100106.41;1735387;81;21431;-69
2022/08/14 12:17:28;;;;;;;13.18;5.62;;;;;;;36.20;42.59;100097.44;1733336;81;21110;-69
2022/08/14 12:20:02;;;;;;;9.58;5.70;;;;;;;36.30;43.01;100093.55;1735780;81;21086;-69
2022/08/14 12:22:45;;;;;;;13.20;5.87;;;;;;;36.26;42.46;100095.11;1727849;82;21064;-69
2022/08/14 12:25:16;;;;;;;9.30;5.60;;;;;;;36.19;43.40;100095.80;1730705;82;21023;-69
2022/08/14 12:27:48;;;;;;;14.95;6.12;;;;;;;36.39;44.63;100093.12;1753468;81;21543;-69
2022/08/14 12:34:13;;;;;;;13.48;5.83;;;;;;;36.49;45.18;100092.70;1716958;82;21046;-69
2022/08/14 12:36:41;;;;;;;14.38;6.10;;;;;;;36.47;46.05;100093.48;1717035;83;21017;-69
2022/08/14 12:39:26;;;;;;;14.47;5.72;;;;;;;36.38;46.46;100085.61;1713093;83;21074;-69
2022/08/14 12:42:05;;;;;;;16.40;6.35;;;;;;;36.89;46.91;100088.91;1696345;83;21082;-69
2022/08/14 12:44:31;;;;;;;11.30;5.93;;;;;;;36.82;46.65;100086.97;1713611;83;21045;-69
2022/08/14 12:47:19;;;;;;;11.43;6.00;;;;;;;36.35;46.88;100082.08;1699366;83;21172;-69
2022/08/14 12:49:53;;;;;;;11.80;6.12;;;;;;;36.43;47.68;100080.30;1694389;83;21065;-70
2022/08/14 12:52:38;;;;;;;14.55;6.08;;;;;;;36.67;47.63;100078.74;1703312;83;21592;-69
2022/08/14 12:55:16;;;;;;;15.03;5.62;;;;;;;36.56;45.46;100076.96;1707494;83;21065;-69
2022/08/14 12:57:46;;;;;;;9.00;5.70;;;;;;;36.45;45.20;100074.16;1718349;82;21008;-69
2022/08/14 13:00:18;;;;;;;12.43;5.87;;;;;;;36.63;45.23;100079.77;1729323;82;21535;-69
2022/08/14 13:02:51;;;;;;;12.73;5.72;;;;;;;36.62;46.24;100071.94;1740564;81;21059;-69
2022/08/14 13:05:25;;;;;;;11.25;5.42;;;;;;;36.24;44.59;100070.42;1732943;82;21031;-70
2022/08/14 13:07:52;;;;;;;9.08;5.50;;;;;;;36.30;44.45;100069.43;1746522;82;21036;-69
2022/08/14 13:10:21;;;;;;;9.60;5.12;;;;;;;36.10;43.27;100067.80;1746205;81;21090;-69
2022/08/14 13:12:51;;;;;;;10.55;5.35;;;;;;;35.92;44.99;100059.51;1735373;82;21032;-69
2022/08/14 13:15:18;;;;;;;14.33;5.75;;;;;;;36.07;45.15;100067.77;1747806;81;21051;-69
2022/08/14 13:17:51;;;;;;;13.22;5.40;;;;;;;35.89;45.65;100068.05;1752467;82;21090;-69
2022/08/14 13:20:20;;;;;;;;;;;;;;;35.86;45.65;100065.85;1711317;82;21001;-69
2022/08/14 13:22:47;;;;;;;8.88;5.40;;;;;;;35.63;45.49;100064.16;1737478;82;20111;-69
2022/08/14 13:25:21;;;;;;;12.07;6.08;;;;;;;35.43;45.63;100061.42;1741925;81;21042;-69
2022/08/14 13:27:51;;;;;;;11.63;5.95;;;;;;;35.63;45.31;100058.80;1734935;82;21032;-69
2022/08/14 13:30:19;;;;;;;14.03;6.10;;;;;;;35.72;45.23;100056.54;1731803;82;21044;-69
2022/08/14 13:32:47;;;;;;;16.20;6.70;;;;;;;35.85;45.14;100052.16;1741272;82;21594;-68
2022/08/14 13:35:16;;;;;;;11.63;6.42;;;;;;;35.84;45.04;100051.36;1744370;81;21099;-69
2022/08/14 13:37:49;;;;;;;11.48;6.62;;;;;;;35.92;44.34;100050.14;1739193;82;21047;-68
2022/08/14 13:40:19;;;;;;;19.10;7.08;;;;;;;35.87;44.23;100054.06;1730189;82;21122;-69
2022/08/14 13:42:49;;;;;;;14.20;7.35;;;;;;;35.92;43.72;100047.99;1752941;81;21082;-69
2022/08/14 13:45:20;;;;;;;14.15;7.22;;;;;;;36.08;44.03;100049.28;1735490;81;21071;-68
2022/08/14 13:47:47;;;;;;;15.68;7.17;;;;;;;36.17;43.93;100041.64;1726735;82;21507;-69
2022/08/14 13:50:15;;;;;;;11.05;7.05;;;;;;;36.07;43.67;100045.50;1722600;82;21622;-69
2022/08/14 13:52:49;;;;;;;13.75;7.22;;;;;;;36.16;43.34;100045.94;1728628;82;21047;-69
2022/08/14 13:55:21;;;;;;;14.68;7.53;;;;;;;36.15;43.37;100043.77;1735986;81;21072;-69
2022/08/14 13:57:50;;;;;;;14.85;7.37;;;;;;;36.27;44.53;100051.69;1734885;81;21477;-69
2022/08/14 14:00:18;;;;;;;12.45;6.75;;;;;;;36.22;43.80;100045.75;1735409;82;21042;-69
2022/08/14 14:02:47;;;;;;;16.87;7.12;;;;;;;35.87;43.80;100040.67;1726233;81;21063;-70
2022/08/14 14:05:18;;;;;;;13.70;6.60;;;;;;;36.16;43.79;100044.06;1730293;82;21150;-69
2022/08/14 14:07:50;;;;;;;12.55;6.95;;;;;;;36.17;44.67;100042.19;1745379;81;21110;-69
2022/08/14 14:10:20;;;;;;;12.53;6.95;;;;;;;35.87;44.22;100040.17;1736824;82;21004;-69
2022/08/14 14:12:49;;;;;;;12.15;6.22;;;;;;;35.83;44.01;100039.04;1742529;82;21032;-69
2022/08/14 14:15:19;;;;;;;11.40;6.53;;;;;;;35.97;44.32;100034.66;1729466;82;21088;-69
2022/08/14 14:17:47;;;;;;;12.78;6.35;;;;;;;35.98;43.89;100033.08;1743973;80;21052;-69
2022/08/14 14:20:19;;;;;;;8.90;6.28;;;;;;;36.09;43.88;100032.67;1739592;82;21095;-69
2022/08/14 14:22:47;;;;;;;16.23;5.97;;;;;;;36.20;44.36;100041.70;1730121;82;21023;-70
2022/08/14 14:25:18;;;;;;;10.38;6.10;;;;;;;36.36;44.82;100040.02;1735388;81;21075;-69
2022/08/14 14:27:48;;;;;;;13.72;6.10;;;;;;;36.03;44.50;100035.00;1742154;81;21083;-69
2022/08/14 14:30:17;;;;;;;8.85;6.05;;;;;;;36.02;45.62;100031.52;1737881;82;21066;-69
2022/08/14 14:32:47;;;;;;;11.05;6.45;;;;;;;36.01;45.86;100032.59;1742075;80;21130;-69
2022/08/14 14:35:22;;;;;;;11.20;6.70;;;;;;;35.90;45.92;100036.18;1732476;82;21099;-69
2022/08/14 14:37:47;;;;;;;13.50;6.97;;;;;;;35.92;46.16;100034.06;1706672;82;21019;-70
2022/08/14 14:40:15;;;;;;;13.78;6.78;;;;;;;35.84;46.31;100027.80;1745349;81;21076;-69
2022/08/14 14:42:47;;;;;;;11.33;6.83;;;;;;;35.61;46.46;100032.26;1736458;81;21036;-69
2022/08/14 14:45:22;;;;;;;15.10;6.70;;;;;;;35.39;47.00;100035.39;1738162;81;21584;-69
2022/08/14 14:47:52;;;;;;;15.08;6.62;;;;;;;35.15;47.53;100029.34;1735212;82;21100;-69
2022/08/14 14:50:22;;;;;;;10.93;6.50;;;;;;;35.18;46.59;100027.04;1728040;82;21064;-69
2022/08/14 14:52:51;;;;;;;12.98;6.97;;;;;;;35.05;46.74;100025.44;1743931;81;21023;-69
2022/08/14 14:55:19;;;;;;;12.03;6.83;;;;;;;35.15;46.88;100027.52;1725513;82;21553;-68
2022/08/14 14:57:46;;;;;;;14.43;7.70;;;;;;;34.94;46.89;100028.17;1739724;81;21570;-69
2022/08/14 15:00:17;;;;;;;14.80;7.00;;;;;;;35.08;46.75;100023.63;1742517;81;21551;-69
2022/08/14 15:02:49;;;;;;;13.95;7.03;;;;;;;34.82;46.36;100030.39;1730810;82;21575;-69
2022/08/14 15:05:20;;;;;;;10.95;6.90;;;;;;;34.98;47.42;100022.63;1748942;81;21063;-69
2022/08/14 15:07:50;;;;;;;14.30;7.85;;;;;;;34.93;47.41;100021.21;1750571;81;21118;-70
2022/08/14 15:10:21;;;;;;;15.30;7.15;;;;;;;34.77;47.45;100031.62;1751270;81;21031;-69
2022/08/14 15:12:49;;;;;;;14.35;7.65;;;;;;;34.79;47.90;100032.19;1743348;81;21054;-69
2022/08/14 15:15:16;;;;;;;11.85;7.78;;;;;;;34.76;46.89;100030.02;1736371;82;21055;-69
2022/08/14 15:17:44;;;;;;;11.80;7.47;;;;;;;34.74;46.27;100025.96;1742627;81;21129;-69
2022/08/14 15:20:15;;;;;;;13.13;8.08;;;;;;;34.67;45.91;100030.09;1729158;83;21041;-68
2022/08/14 15:22:43;;;;;;;12.70;7.72;;;;;;;34.58;45.94;100030.17;1730163;82;21079;-68
2022/08/14 15:25:13;;;;;;;14.63;7.50;;;;;;;34.63;46.11;100033.76;1740445;81;20997;-68
2022/08/14 15:27:40;;;;;;;12.88;8.03;;;;;;;34.47;46.08;100028.64;1734374;82;21060;-69
2022/08/14 15:30:11;;;;;;;13.10;7.58;;;;;;;34.66;46.33;100027.95;1723321;82;21126;-69
2022/08/14 15:32:40;;;;;;;15.20;7.97;;;;;;;34.69;46.61;100027.49;1735709;82;21141;-69
2022/08/14 15:35:08;;;;;;;10.53;7.17;;;;;;;34.67;46.40;100026.08;1734087;82;21009;-69
2022/08/14 15:37:36;;;;;;;14.23;8.03;;;;;;;34.46;46.39;100027.00;1736908;81;21029;-69
2022/08/14 15:40:04;;;;;;;13.00;8.03;;;;;;;34.36;46.24;100032.67;1734802;82;21036;-69
2022/08/14 15:42:35;;;;;;;13.95;7.90;;;;;;;34.21;46.38;100033.98;1729658;81;21039;-69
2022/08/14 15:45:04;;;;;;;13.50;7.78;;;;;;;34.19;46.41;100035.27;1727831;82;21039;-69
2022/08/14 15:47:33;;;;;;;14.65;7.70;;;;;;;34.07;46.53;100030.72;1746533;82;21112;-69
2022/08/14 15:50:07;;;;;;;15.40;8.18;;;;;;;33.99;46.63;100035.61;1736184;82;21124;-69
2022/08/14 15:52:36;;;;;;;14.30;8.03;;;;;;;33.82;46.92;100035.48;1747753;81;21107;-69
2022/08/14 15:55:11;;;;;;;16.23;8.45;;;;;;;33.78;46.38;100034.33;1734716;82;21036;-69
2022/08/14 15:57:40;;;;;;;14.10;7.87;;;;;;;33.67;46.49;100031.42;1731259;82;21027;-69
2022/08/14 16:02:39;;;;;;;12.03;7.00;;;;;;;33.37;46.64;100042.68;1707864;81;21011;-68
2022/08/14 16:05:07;;;;;;;17.48;7.60;;;;;;;33.30;46.48;100044.93;1752527;81;21107;-69
2022/08/14 16:07:34;;;;;;;14.35;6.72;;;;;;;33.16;46.73;100039.51;1746802;81;21035;-69
2022/08/14 16:10:02;;;;;;;16.05;7.42;;;;;;;33.06;47.25;100047.22;1743629;81;21075;-69
2022/08/14 16:12:29;;;;;;;10.13;7.58;;;;;;;33.04;46.71;100050.10;1753031;81;21016;-69
2022/08/14 16:14:57;;;;;;;13.65;7.35;;;;;;;33.07;46.76;100053.66;1726170;81;21048;-69
2022/08/14 16:17:25;;;;;;;12.75;7.47;;;;;;;32.91;47.15;100057.77;1735679;82;21140;-69
2022/08/14 16:19:53;;;;;;;12.98;7.90;;;;;;;32.85;46.73;100056.55;1729941;82;21068;-68
2022/08/14 16:22:20;;;;;;;14.85;8.18;;;;;;;32.78;47.02;100056.61;1733803;80;21047;-69
2022/08/14 16:24:52;;;;;;;12.20;7.75;;;;;;;32.67;47.12;100052.86;1739750;80;21056;-69
2022/08/14 16:27:22;;;;;;;12.37;7.83;;;;;;;32.73;47.16;100049.81;1742148;81;21048;-69
2022/08/14 16:29:50;;;;;;;13.50;8.03;;;;;;;32.64;48.11;100054.63;1735468;82;21551;-68
2022/08/14 16:32:17;;;;;;;17.25;7.28;;;;;;;32.31;48.19;100049.66;1753519;82;21087;-69
2022/08/14 16:34:44;;;;;;;12.03;7.60;;;;;;;32.26;48.04;100048.17;1753782;81;21039;-69
2022/08/14 16:37:17;;;;;;;13.03;7.25;;;;;;;32.27;47.55;100045.81;1723377;82;21072;-68
2022/08/14 16:39:47;;;;;;;16.87;7.62;;;;;;;32.29;47.45;100053.07;1725687;82;21039;-68
2022/08/14 16:42:14;;;;;;;15.50;7.80;;;;;;;32.20;47.78;100047.73;1728275;82;21076;-68
2022/08/14 16:44:42;;;;;;;11.08;7.78;;;;;;;32.22;47.66;100061.63;1745676;81;21044;-69
2022/08/14 16:47:13;;;;;;;15.23;8.40;;;;;;;32.22;47.59;100066.96;1737763;82;21079;-68
2022/08/14 16:49:41;;;;;;;16.57;8.83;;;;;;;32.25;47.60;100057.21;1739178;82;21073;-68
2022/08/14 16:52:12;;;;;;;17.95;9.65;;;;;;;32.14;47.89;100064.09;1740751;82;21056;-68
2022/08/14 16:54:41;;;;;;;14.83;9.30;;;;;;;32.13;47.57;100060.59;1734645;82;21036;-69
2022/08/14 16:57:22;;;;;;;16.32;9.38;;;;;;;32.11;47.52;100071.17;1736868;82;21515;-68
2022/08/14 16:59:53;;;;;;;13.13;8.65;;;;;;;32.01;47.95;100066.34;1747129;81;21021;-68
2022/08/14 17:02:34;;;;;;;22.50;9.18;;;;;;;32.01;47.85;100072.20;1724302;82;21080;-69
2022/08/14 17:05:23;;;;;;;17.23;9.10;;;;;;;31.93;48.08;100081.23;1731080;82;21088;-68
2022/08/14 17:08:16;;;;;;;17.00;8.93;;;;;;;31.81;47.90;100077.14;1751022;82;21542;-69
2022/08/14 17:10:54;;;;;;;18.35;9.20;;;;;;;31.74;48.50;100086.52;1743395;82;21032;-69
2022/08/14 17:13:30;;;;;;;14.73;8.90;;;;;;;31.59;48.43;100086.53;1746021;80;21091;-69
2022/08/14 17:16:15;;;;;;;14.50;9.08;;;;;;;31.70;48.01;100084.52;1733636;82;21679;-69
2022/08/14 17:18:51;;;;;;;13.30;9.80;;;;;;;31.62;48.14;100089.59;1732599;83;21055;-68
2022/08/14 17:21:25;;;;;;;17.02;10.60;;;;;;;31.56;47.83;100081.66;1730405;82;21034;-70
2022/08/14 17:23:59;;;;;;;14.70;8.78;;;;;;;31.47;48.11;100084.59;1725103;82;21068;-69
2022/08/14 17:26:37;;;;;;;18.07;10.10;;;;;;;31.51;47.70;100083.65;1736041;82;21524;-69
2022/08/14 17:29:16;;;;;;;18.30;9.28;;;;;;;31.55;47.53;100084.84;1727915;82;21100;-68
2022/08/14 17:31:51;;;;;;;12.65;7.58;;;;;;;31.46;47.38;100077.63;1736188;81;20986;-69
2022/08/14 17:34:20;;;;;;;14.83;8.10;;;;;;;31.46;47.53;100074.96;1742112;80;20993;-69
2022/08/14 17:36:53;;;;;;;15.60;7.45;;;;;;;31.40;47.66;100071.00;1753621;80;21013;-69
2022/08/14 17:39:22;;;;;;;12.05;6.65;;;;;;;31.32;47.80;100066.75;1724847;80;21036;-69
2022/08/14 17:41:59;;;;;;;13.40;6.90;;;;;;;31.28;47.88;100059.70;1727937;80;21024;-69
2022/08/14 17:44:31;;;;;;;12.45;7.22;;;;;;;31.36;48.01;100065.28;1726414;81;21032;-70
2022/08/14 17:47:02;;;;;;;14.50;7.50;;;;;;;31.31;48.23;100073.92;1760877;80;21078;-69
2022/08/14 17:49:32;;;;;;;10.58;6.65;;;;;;;31.27;48.44;100068.73;1730116;80;21155;-70
2022/08/14 17:52:10;;;;;;;9.43;6.78;;;;;;;31.28;48.46;100069.02;1732601;80;21070;-69
2022/08/14 17:54:42;;;;;;;13.75;6.85;;;;;;;31.10;48.65;100069.77;1726979;82;21018;-69
2022/08/14 17:57:14;;;;;;;14.20;6.17;;;;;;;31.02;48.69;100062.53;1738182;81;21041;-69
2022/08/14 17:59:47;;;;;;;14.87;6.62;;;;;;;31.01;48.71;100063.57;1726764;81;21048;-69
2022/08/14 18:02:19;;;;;;;12.18;6.12;;;;;;;31.09;48.84;100061.98;1761784;80;21506;-69
2022/08/14 18:04:46;;;;;;;14.18;6.10;;;;;;;31.10;49.41;100071.58;1741364;81;21018;-69
2022/08/14 18:10:34;;;;;;;12.95;5.87;;;;;;;30.91;49.42;100079.45;1739201;81;21103;-70
2022/08/14 18:13:01;;;;;;;10.90;6.50;;;;;;;30.89;49.36;100076.70;1721373;82;21515;-69
2022/08/14 18:15:30;;;;;;;14.90;5.95;;;;;;;30.95;49.60;100085.16;1729679;81;20975;-69
2022/08/14 18:17:58;;;;;;;11.08;6.30;;;;;;;30.79;49.39;100081.63;1720889;82;21028;-69
2022/08/14 18:20:25;;;;;;;13.88;5.40;;;;;;;30.92;49.53;100089.06;1732444;80;21037;-70
2022/08/14 18:22:53;;;;;;;11.63;5.67;;;;;;;30.85;49.56;100092.75;1730104;80;21048;-69
2022/08/14 18:25:21;;;;;;;14.83;5.80;;;;;;;30.77;49.97;100094.31;1745633;80;20978;-70
2022/08/14 18:27:49;;;;;;;12.73;5.67;;;;;;;30.85;49.99;100095.41;1745351;80;21004;-69
2022/08/14 18:30:24;;;;;;;8.53;5.58;;;;;;;30.74;50.12;100098.21;1726878;80;21044;-69
2022/08/14 18:32:53;;;;;;;14.53;6.00;;;;;;;30.55;50.43;100080.77;1740884;80;21326;-69
2022/08/14 18:35:27;;;;;;;10.98;5.65;;;;;;;30.70;49.96;100077.88;1763959;80;20990;-69
2022/08/14 18:38:17;;;;;;;10.60;6.03;;;;;;;30.74;49.87;100066.33;1753374;80;21026;-69
2022/08/14 18:40:44;;;;;;;10.58;5.80;;;;;;;30.69;49.87;100058.97;1770154;80;21068;-69
2022/08/14 18:43:11;;;;;;;8.93;5.83;;;;;;;30.67;49.96;100070.31;1768191;80;21009;-70
2022/08/14 18:45:45;;;;;;;9.93;5.62;;;;;;;30.66;50.31;100069.22;1739200;80;21109;-69
2022/08/14 18:48:23;;;;;;;11.77;5.90;;;;;;;30.66;50.32;100065.23;1726922;80;21487;-69
2022/08/14 18:50:55;;;;;;;9.88;5.70;;;;;;;30.58;50.58;100065.44;1742463;81;21958;-70
2022/08/14 18:53:24;;;;;;;14.65;6.10;;;;;;;30.52;50.35;100061.28;1744460;80;21565;-70
2022/08/14 18:55:58;;;;;;;8.90;5.70;;;;;;;30.42;50.94;100059.59;1762477;80;21054;-70
2022/08/14 18:58:51;;;;;;;12.10;6.17;;;;;;;30.52;50.63;100061.81;1742107;80;21096;-69
2022/08/14 19:01:28;;;;;;;13.50;5.90;;;;;;;30.40;51.04;100062.97;1733734;80;21020;-70
2022/08/14 19:03:59;;;;;;;10.90;5.70;;;;;;;30.40;51.28;100069.60;1749843;81;21509;-69
2022/08/14 19:06:39;;;;;;;10.58;5.45;;;;;;;30.37;51.63;100067.34;1728710;81;21036;-69
2022/08/14 19:09:07;;;;;;;11.70;5.70;;;;;;;30.33;51.24;100071.44;1735906;80;21601;-69
2022/08/14 19:11:40;;;;;;;12.43;5.87;;;;;;;30.30;51.56;100067.37;1732734;81;21363;-69
2022/08/14 19:14:12;;;;;;;10.10;5.90;;;;;;;30.27;51.75;100065.12;1742002;80;21125;-69
2022/08/14 19:16:41;;;;;;;9.85;5.60;;;;;;;30.22;52.02;100061.45;1720168;80;20999;-69
2022/08/14 19:19:11;;;;;;;7.65;5.87;;;;;;;30.23;51.25;100059.92;1764604;80;21036;-69
2022/08/14 19:21:46;;;;;;;9.50;5.80;;;;;;;30.20;51.47;100052.88;1764688;78;21476;-69
2022/08/14 19:24:18;;;;;;;9.45;5.97;;;;;;;30.29;51.55;100058.25;1761357;80;21142;-69
2022/08/14 19:26:50;;;;;;;9.58;5.60;;;;;;;30.21;51.56;100057.14;1739819;80;21075;-70
2022/08/14 19:29:32;;;;;;;11.33;5.90;;;;;;;30.14;52.25;100054.52;1766310;80;21032;-70
2022/08/14 19:32:00;;;;;;;10.95;5.80;;;;;;;30.10;52.01;100057.28;1761221;80;21081;-69
2022/08/14 19:34:44;;;;;;;11.15;6.17;;;;;;;30.05;51.68;100059.23;1736962;81;21023;-69
2022/08/14 19:37:35;;;;;;;12.80;5.85;;;;;;;30.14;51.27;100054.52;1761458;80;21512;-68
2022/08/14 19:40:04;;;;;;;8.80;5.60;;;;;;;30.21;51.34;100051.84;1742614;80;21166;-69
2022/08/14 19:46:06;;;;;;;13.18;6.30;;;;;;;30.00;51.68;100040.45;1695472;83;21042;-68
2022/08/14 19:48:35;;;;;;;8.13;6.03;;;;;;;29.93;52.08;100038.33;1687411;84;21030;-68
2022/08/14 19:51:05;;;;;;;12.70;6.35;;;;;;;29.91;51.92;100038.52;1647917;86;21133;-68
2022/08/14 19:59:44;;;;;;;11.53;6.00;;;;;;;29.81;52.15;100017.42;1706954;83;21062;-68
2022/08/14 20:02:13;;;;;;;10.15;5.58;;;;;;;29.86;52.05;100012.30;1700310;83;21053;-68
2022/08/14 20:04:40;;;;;;;10.23;6.20;;;;;;;29.84;51.95;100014.34;1706792;84;21001;-68
2022/08/14 20:07:09;;;;;;;10.35;5.90;;;;;;;29.86;52.25;100017.60;1696609;83;21486;-68
2022/08/14 20:09:43;;;;;;;13.45;6.80;;;;;;;29.82;52.06;100013.21;1717758;81;21018;-68
2022/08/14 20:12:38;;;;;;;7.33;6.15;;;;;;;29.79;52.48;100004.88;1754664;80;21026;-68
2022/08/14 20:18:42;;;;;;;9.78;6.30;;;;;;;29.82;52.68;100016.38;1742177;81;21518;-69
2022/08/14 20:21:08;;;;;;;11.10;6.37;;;;;;;29.77;52.65;100015.69;1753018;80;21529;-68
2022/08/14 20:23:37;;;;;;;13.43;6.30;;;;;;;29.72;52.62;100019.45;1748894;81;21026;-68
2022/08/14 20:29:07;;;;;;;10.65;6.33;;;;;;;29.65;52.79;100023.41;1748635;80;21106;-69
2022/08/14 20:31:36;;;;;;;10.32;6.37;;;;;;;29.65;52.83;100026.06;1744159;81;21029;-69
2022/08/14 20:34:17;;;;;;;14.07;6.28;;;;;;;29.54;52.89;100014.72;1752128;80;21014;-69
2022/08/14 20:36:44;;;;;;;15.10;6.60;;;;;;;29.61;53.00;100020.86;1747035;82;21046;-69
2022/08/14 20:39:11;;;;;;;13.22;6.20;;;;;;;29.38;52.93;100021.75;1742503;82;21120;-69
2022/08/14 20:45:22;;;;;;;14.13;6.92;;;;;;;29.46;53.25;100022.88;1755470;81;21561;-69
2022/08/14 20:48:27;;;;;;;9.20;6.62;;;;;;;29.41;52.70;100023.50;1677174;84;21111;-69
2022/08/14 20:54:21;;;;;;;13.38;6.92;;;;;;;29.42;52.32;100019.84;1748768;80;21141;-69
2022/08/14 20:57:10;;;;;;;9.08;6.28;;;;;;;29.42;52.16;100015.87;1746856;80;21042;-69
2022/08/14 21:00:21;;;;;;;13.05;6.87;;;;;;;29.36;52.55;100010.86;1704591;81;21073;-69
2022/08/14 21:02:49;;;;;;;11.43;7.10;;;;;;;29.34;52.55;100016.87;1750877;82;21001;-69
2022/08/14 21:05:20;;;;;;;12.70;7.37;;;;;;;29.25;52.26;100007.47;1754350;80;21104;-69
2022/08/14 21:08:02;;;;;;;10.15;7.30;;;;;;;29.17;52.38;100010.31;1643999;87;21611;-69
2022/08/14 21:10:30;;;;;;;10.10;6.33;;;;;;;29.26;51.92;100010.93;1655845;86;21519;-68
2022/08/14 21:12:58;;;;;;;10.60;7.03;;;;;;;29.16;52.72;100009.50;1649102;86;21111;-69
2022/08/14 21:15:26;;;;;;;11.28;7.00;;;;;;;29.20;52.10;100007.28;1645820;86;21068;-69